タシュケント の空港の天気 - METARとTAF

タシケント空港 ( UTTT / TAS ) - ウズベキスタン タシュケント
飛行場実況気象(Metar)
観測時間05/28 14:30 UZT (05/28 09:30 UTC)
風向・風速西南西 5m/s
視程10km以上
天気現象
なし
気温23℃
湿度36%
気圧1020hPa
METARUTTT 280930Z 24010KT 180V300 CAVOK 23/07 Q1020 R26R/CLRD70 NOSIG
過去の天気等 Google飛行場航空写真 Wunderground天気予報

過去48時間のMETAR

飛行場予報(TAF)
発表時間: 5/28 10:00 UZT (5/28 05:00 UTC)
予報対象時間: 28日11時 UZT ~ 29日11時 UZT
風向・風速北西 5m/s
視程7000m
少しの積乱雲 雲底高度 1830m
全天の4割程度の雲 雲底高度 3050m
28日11時 UZT ~ 28日21時 UZT に一時的に
風向・風速不定 6m/s 瞬間風速 11m/s
天気現象弱い雷雨
全天の4割程度の積乱雲 雲底高度 1520m
全天の8割程度の雲 雲底高度 3050m
TAF COR UTTT 280500Z 2806/2906 32010KT 7000 FEW060CB SCT100
TEMPO 2806/2816 VRB12G22KT -TSRA SCT050CB BKN100